KCLE/CLE METAR and TAF weather

Enter ICAO airport designator
Station Type Date Time Source
KCLE METAR 2022/06/27 17:51 UTC NOAA

KCLE 271751Z 30018G23KT 10SM FEW050 23/06 A3014 RMK AO2 SLP218 T02280061 10233 20200 58001


Station Type Date Time Source
KCLE Decoded METAR 2022/06/27 17:51 UTC NOAA

CLEVELAND-HOPKINS INTERNATIONAL , OH, United States (KCLE) 41-24N 081-51W 236M
Jun 27, 2022 - 01:51 PM EDT / 2022.06.27 1751 UTC
Wind: from the WNW (300 degrees) at 21 MPH (18 KT) gusting to 26 MPH (23 KT):0
Visibility: 10 mile(s):0
Sky conditions: mostly clear
Temperature: 73.0 F (22.8 C)
Dew Point: 43.0 F (6.1 C)
Relative Humidity: 33%
Pressure (altimeter): 30.14 in. Hg (1020 hPa)
Pressure tendency: 0.00 inches (0.1 hPa) lower than three hours ago
ob: KCLE 271751Z 30018G23KT 10SM FEW050 23/06 A3014 RMK AO2 SLP218 T02280061 10233 20200 58001
cycle: 18

Station Type Date Time Source
KCLE TAF 2022/06/27 18:27 UTC NOAA

TAF KCLE 271724Z 2718/2824 30010G19KT P6SM SKC
FM280100 31005KT P6SM FEW250
FM280700 00000KT P6SM SKC

Example: see airport list